createdAt,value
2018-01-06T00:00:27.310Z,88.9
2018-01-06T00:01:37.461Z,88.9
2018-01-06T00:02:47.634Z,89.28
2018-01-06T00:03:57.784Z,89.09
2018-01-06T00:05:08.023Z,89
2018-01-06T00:06:18.065Z,89.28
2018-01-06T00:07:28.281Z,89
2018-01-06T00:08:38.425Z,89.19
2018-01-06T00:09:48.593Z,89
2018-01-06T00:10:58.738Z,89.28
2018-01-06T00:12:08.891Z,89.19
2018-01-06T00:13:19.046Z,89.28
2018-01-06T00:14:29.278Z,89
2018-01-06T00:15:39.408Z,89
2018-01-06T00:16:49.545Z,89.19
2018-01-06T00:17:59.702Z,89.19
2018-01-06T00:19:09.853Z,89.19
2018-01-06T00:20:19.865Z,89.19
2018-01-06T00:21:30.095Z,89.28
2018-01-06T00:22:40.026Z,89.19
2018-01-06T00:23:50.193Z,89.09
2018-01-06T00:25:00.001Z,89.19
2018-01-06T00:26:10.128Z,89.28
2018-01-06T00:27:20.359Z,89.28
2018-01-06T00:28:30.578Z,89.67
2018-01-06T00:29:40.883Z,89.38
2018-01-06T00:30:51.050Z,89.67
2018-01-06T00:32:01.291Z,89.47
2018-01-06T00:33:11.456Z,89.47
2018-01-06T00:34:21.628Z,89.38
2018-01-06T00:35:31.837Z,89.67
2018-01-06T00:36:42.003Z,89.57
2018-01-06T00:37:52.388Z,89.57
2018-01-06T00:39:02.590Z,89.76
2018-01-06T00:40:12.864Z,89.86
2018-01-06T00:41:23.042Z,90.05
2018-01-06T00:42:33.313Z,89.57
2018-01-06T00:43:43.482Z,89.67
2018-01-06T00:44:53.652Z,89.95
2018-01-06T00:46:03.842Z,89.95
2018-01-06T00:47:14.082Z,89.76
2018-01-06T00:48:24.233Z,89.86
2018-01-06T00:49:34.586Z,89.67
2018-01-06T00:50:44.473Z,89.86
2018-01-06T00:51:54.615Z,89.86
2018-01-06T00:53:04.759Z,90.05
2018-01-06T00:54:14.889Z,89.95
2018-01-06T00:55:25.053Z,90.05
2018-01-06T00:56:35.175Z,89.76
2018-01-06T00:57:45.332Z,90.05
2018-01-06T00:58:55.484Z,89.95
2018-01-06T01:00:05.102Z,89.95
2018-01-06T01:01:15.312Z,89.76
2018-01-06T01:02:25.463Z,89.95
2018-01-06T01:03:36.645Z,89.76
2018-01-06T01:04:46.795Z,89.86
2018-01-06T01:05:56.772Z,89.95
2018-01-06T01:07:07.001Z,89.76
2018-01-06T01:08:17.191Z,89.76
2018-01-06T01:09:27.441Z,89.76
2018-01-06T01:10:37.634Z,89.95
2018-01-06T01:11:47.788Z,89.86
2018-01-06T01:12:57.930Z,89.95
2018-01-06T01:14:07.838Z,89.95
2018-01-06T01:15:18.004Z,89.95
2018-01-06T01:16:28.149Z,89.95
2018-01-06T01:17:38.366Z,89.76
2018-01-06T01:18:48.518Z,89.76
2018-01-06T01:19:58.672Z,89.76
2018-01-06T01:21:08.781Z,89.95
2018-01-06T01:22:18.927Z,89.57
2018-01-06T01:23:29.102Z,89.76
2018-01-06T01:24:39.367Z,89.86
2018-01-06T01:25:49.641Z,89.86
2018-01-06T01:26:59.794Z,89.86
2018-01-06T01:28:09.928Z,89.95
2018-01-06T01:29:20.057Z,89.76
2018-01-06T01:30:30.305Z,89.76
2018-01-06T01:31:40.423Z,89.95
2018-01-06T01:32:50.576Z,89.86
2018-01-06T01:34:00.736Z,89.76
2018-01-06T01:35:10.900Z,89.95
2018-01-06T01:36:21.048Z,89.95
2018-01-06T01:37:31.173Z,89.76
2018-01-06T01:38:41.508Z,90.05
2018-01-06T01:39:51.694Z,90.05
2018-01-06T01:41:01.914Z,89.76
2018-01-06T01:42:12.046Z,89.57
2018-01-06T01:43:22.239Z,89.57
2018-01-06T01:44:32.429Z,89.57
2018-01-06T01:45:42.552Z,89.76
2018-01-06T01:46:52.694Z,89.57
2018-01-06T01:48:02.865Z,89.57
2018-01-06T01:49:13.019Z,89.38
2018-01-06T01:50:23.222Z,89.47
2018-01-06T01:51:33.462Z,89.19
2018-01-06T01:52:43.650Z,89.47
2018-01-06T01:53:53.655Z,89.47
2018-01-06T01:55:03.904Z,89.38
2018-01-06T01:56:14.164Z,89.47
2018-01-06T01:57:24.129Z,89.57
2018-01-06T01:58:34.283Z,89.57
2018-01-06T01:59:44.468Z,89.57
2018-01-06T02:00:54.331Z,89.28
2018-01-06T02:02:04.475Z,89.28
2018-01-06T02:03:14.596Z,89
2018-01-06T02:04:24.867Z,89.19
2018-01-06T02:05:34.825Z,89.09
2018-01-06T02:06:45.027Z,88.9
2018-01-06T02:07:55.166Z,88.81
2018-01-06T02:09:05.267Z,88.9
2018-01-06T02:10:15.440Z,88.81
2018-01-06T02:11:25.724Z,89
2018-01-06T02:12:35.888Z,89
2018-01-06T02:13:46.173Z,88.71
2018-01-06T02:14:56.358Z,88.71
2018-01-06T02:16:06.625Z,88.9
2018-01-06T02:17:16.780Z,88.81
2018-01-06T02:18:26.985Z,88.62
2018-01-06T02:19:37.111Z,88.81
2018-01-06T02:20:47.233Z,89.19
2018-01-06T02:21:57.350Z,89.19
2018-01-06T02:23:07.231Z,89.09
2018-01-06T02:24:17.347Z,89.09
2018-01-06T02:25:27.599Z,89.38
2018-01-06T02:26:37.733Z,89.57
2018-01-06T02:27:47.913Z,89.09
2018-01-06T02:28:57.778Z,89.47
2018-01-06T02:30:07.907Z,89.38
2018-01-06T02:31:18.075Z,89.19
2018-01-06T02:32:28.220Z,89.47
2018-01-06T02:33:38.467Z,89.86
2018-01-06T02:34:48.672Z,89.95
2018-01-06T02:35:58.540Z,89.67
2018-01-06T02:37:08.657Z,89.86
2018-01-06T02:38:18.813Z,89.57
2018-01-06T02:39:28.950Z,89.86
2018-01-06T02:40:39.096Z,89.95
2018-01-06T02:41:49.290Z,89.76
2018-01-06T02:42:59.420Z,89.57
2018-01-06T02:44:09.593Z,89.57
2018-01-06T02:45:19.761Z,89.81
2018-01-06T02:46:29.920Z,89.81
2018-01-06T02:47:40.087Z,90.05
2018-01-06T02:48:50.323Z,89.62
2018-01-06T02:50:00.457Z,89.81
2018-01-06T02:51:10.636Z,89.95
2018-01-06T02:52:20.756Z,89.81
2018-01-06T02:53:30.934Z,89.72
2018-01-06T02:54:41.081Z,89.53
2018-01-06T02:55:51.236Z,89.53
2018-01-06T02:57:01.361Z,89.81
2018-01-06T02:58:11.615Z,90.09
2018-01-06T02:59:21.848Z,90.09
2018-01-06T03:00:32.075Z,89.81
2018-01-06T03:01:42.266Z,90.09
2018-01-06T03:02:52.418Z,90.38
2018-01-06T03:04:02.560Z,90.57
2018-01-06T03:05:12.924Z,90.28
2018-01-06T03:06:23.077Z,90.09
2018-01-06T03:07:33.238Z,90.09
2018-01-06T03:08:43.382Z,90.76
2018-01-06T03:09:53.526Z,90.57
2018-01-06T03:11:03.684Z,90.57
2018-01-06T03:12:13.844Z,90.47
2018-01-06T03:13:23.713Z,90.76
2018-01-06T03:14:33.840Z,90.76
2018-01-06T03:15:43.990Z,90.66
2018-01-06T03:16:54.168Z,90.66
2018-01-06T03:18:04.442Z,91.04
2018-01-06T03:19:14.700Z,91.24
2018-01-06T03:20:24.918Z,91.24
2018-01-06T03:21:35.106Z,90.95
2018-01-06T03:22:45.220Z,91.24
2018-01-06T03:23:55.319Z,91.24
2018-01-06T03:25:05.433Z,90.95
2018-01-06T03:26:15.249Z,91.04
2018-01-06T03:27:25.363Z,91.24
2018-01-06T03:28:35.487Z,91.24
2018-01-06T03:29:45.638Z,91.04
2018-01-06T03:30:55.847Z,90.95
2018-01-06T03:32:06.031Z,91.24
2018-01-06T03:33:16.146Z,91.04
2018-01-06T03:34:26.253Z,91.04
2018-01-06T03:35:37.384Z,91.24
2018-01-06T03:36:47.579Z,91.24
2018-01-06T03:37:57.355Z,91.24
2018-01-06T03:39:07.507Z,91.24
2018-01-06T03:40:17.700Z,90.95
2018-01-06T03:41:27.844Z,91.04
2018-01-06T03:42:37.960Z,91.04
2018-01-06T03:43:48.088Z,91.04
2018-01-06T03:44:58.200Z,90.95
2018-01-06T03:46:08.313Z,90.95
2018-01-06T03:47:18.424Z,90.85
2018-01-06T03:48:28.558Z,90.85
2018-01-06T03:49:38.676Z,90.95
2018-01-06T03:50:48.855Z,90.85
2018-01-06T03:51:58.980Z,91.24
2018-01-06T03:53:09.108Z,91.04
2018-01-06T03:54:18.984Z,91.24
2018-01-06T03:55:29.206Z,91.24
2018-01-06T03:56:39.456Z,91.04
2018-01-06T03:57:49.591Z,90.95
2018-01-06T03:58:59.852Z,91.04
2018-01-06T04:00:10.031Z,91.04
2018-01-06T04:01:20.188Z,91.14
2018-01-06T04:02:30.326Z,91.14
2018-01-06T04:03:40.275Z,90.57
2018-01-06T04:04:50.418Z,90.57
2018-01-06T04:06:00.599Z,90.66
2018-01-06T04:07:10.862Z,90.76
2018-01-06T04:08:20.990Z,90.57
2018-01-06T04:09:30.851Z,90.47
2018-01-06T04:10:41.194Z,90.47
2018-01-06T04:11:51.429Z,90.57
2018-01-06T04:13:01.584Z,90.76
2018-01-06T04:14:11.735Z,90.76
2018-01-06T04:15:21.903Z,90.42
2018-01-06T04:16:32.079Z,90.8
2018-01-06T04:17:42.207Z,90.8
2018-01-06T04:18:52.337Z,90.8
2018-01-06T04:20:02.445Z,90.23
2018-01-06T04:21:12.220Z,90.61
2018-01-06T04:22:22.064Z,90.33
2018-01-06T04:23:32.095Z,89.81
2018-01-06T04:24:42.287Z,90
2018-01-06T04:25:52.176Z,89.86
2018-01-06T04:27:02.285Z,90.19
2018-01-06T04:28:12.453Z,90.09
2018-01-06T04:29:22.614Z,90.09
2018-01-06T04:30:32.836Z,90.19
2018-01-06T04:31:42.961Z,90.09
2018-01-06T04:32:53.107Z,90
2018-01-06T04:34:03.213Z,89.72
2018-01-06T04:35:13.065Z,89.81
2018-01-06T04:36:23.079Z,89.9
2018-01-06T04:37:33.334Z,89.81
2018-01-06T04:38:43.549Z,89.72
2018-01-06T04:39:53.450Z,90
2018-01-06T04:41:03.569Z,90.09
2018-01-06T04:42:13.455Z,89.9
2018-01-06T04:43:23.607Z,90.09
2018-01-06T04:44:33.759Z,89.81
2018-01-06T04:45:43.867Z,90.28
2018-01-06T04:46:54.072Z,90.71
2018-01-06T04:48:04.226Z,90.38
2018-01-06T04:49:14.425Z,90.76
2018-01-06T04:50:24.625Z,90.52
2018-01-06T04:51:34.887Z,90.81
2018-01-06T04:52:44.787Z,90.33
2018-01-06T04:53:54.970Z,91.19
2018-01-06T04:55:05.070Z,90.81
2018-01-06T04:56:15.202Z,91.09
2018-01-06T04:57:25.121Z,90.9
2018-01-06T04:58:35.324Z,91.09
2018-01-06T04:59:45.588Z,90.9
2018-01-06T05:00:55.822Z,91.56
2018-01-06T05:02:06.070Z,91.56
2018-01-06T05:03:15.916Z,91.19
2018-01-06T05:04:26.034Z,91.56
2018-01-06T05:05:36.153Z,91.38
2018-01-06T05:06:46.098Z,91.38
2018-01-06T05:07:56.248Z,91.38
2018-01-06T05:09:06.358Z,91.38
2018-01-06T05:10:16.463Z,91.94
2018-01-06T05:11:26.667Z,91.66
2018-01-06T05:12:36.962Z,91.85
2018-01-06T05:13:47.153Z,91.85
2018-01-06T05:14:57.281Z,91.66
2018-01-06T05:16:07.413Z,91.33
2018-01-06T05:17:17.282Z,91.47
2018-01-06T05:18:27.384Z,91.38
2018-01-06T05:19:37.528Z,91.24
2018-01-06T05:20:47.677Z,91.8
2018-01-06T05:21:57.802Z,91.75
2018-01-06T05:23:08.046Z,91.75
2018-01-06T05:24:18.210Z,91.28
2018-01-06T05:25:28.439Z,91.61
2018-01-06T05:26:38.353Z,91.61
2018-01-06T05:27:48.482Z,91.71
2018-01-06T05:28:58.600Z,91.52
2018-01-06T05:30:08.862Z,91.04
2018-01-06T05:31:19.032Z,91.24
2018-01-06T05:32:29.260Z,91.04
2018-01-06T05:33:39.421Z,90.95
2018-01-06T05:34:49.576Z,90.85
2018-01-06T05:35:59.707Z,91.04
2018-01-06T05:37:09.828Z,91.04
2018-01-06T05:38:19.986Z,91.04
2018-01-06T05:39:30.241Z,90.95
2018-01-06T05:40:40.342Z,90.28
2018-01-06T05:41:50.550Z,90.38
2018-01-06T05:43:00.696Z,90.57
2018-01-06T05:44:10.824Z,90.47
2018-01-06T05:45:20.957Z,90.33
2018-01-06T05:46:31.077Z,90.52
2018-01-06T05:47:41.336Z,90.47
2018-01-06T05:48:51.492Z,90.71
2018-01-06T05:50:01.619Z,90.71
2018-01-06T05:51:11.739Z,90.76
2018-01-06T05:52:21.869Z,90.43
2018-01-06T05:53:32.005Z,90.52
2018-01-06T05:54:42.121Z,90.14
2018-01-06T05:55:52.247Z,90.71
2018-01-06T05:57:02.451Z,90.52
2018-01-06T05:58:12.380Z,90.71
2018-01-06T05:59:22.498Z,90.71
2018-01-06T06:00:32.611Z,90.71
2018-01-06T06:01:42.800Z,90.71
2018-01-06T06:02:53.062Z,90.71
2018-01-06T06:04:03.223Z,90.71
2018-01-06T06:05:13.340Z,90.71
2018-01-06T06:06:23.469Z,90.71
2018-01-06T06:07:33.664Z,90.43
2018-01-06T06:08:43.799Z,90.33
2018-01-06T06:09:53.964Z,90.33
2018-01-06T06:11:05.133Z,90.76
2018-01-06T06:12:16.379Z,90.76
2018-01-06T06:13:26.548Z,90.28
2018-01-06T06:14:36.672Z,90.24
2018-01-06T06:15:47.057Z,90.57
2018-01-06T06:16:57.308Z,89.9
2018-01-06T06:18:07.506Z,90
2018-01-06T06:19:17.309Z,90
2018-01-06T06:20:27.161Z,89.9
2018-01-06T06:21:37.268Z,89.81
2018-01-06T06:22:47.513Z,90.09
2018-01-06T06:23:57.659Z,90.19
2018-01-06T06:25:07.915Z,89.9
2018-01-06T06:26:18.065Z,89.62
2018-01-06T06:27:28.264Z,89.9
2018-01-06T06:28:38.460Z,89.62
2018-01-06T06:29:48.630Z,90
2018-01-06T06:30:58.745Z,89.53
2018-01-06T06:32:08.602Z,89.53
2018-01-06T06:33:18.527Z,89.62
2018-01-06T06:34:28.669Z,89.43
2018-01-06T06:35:38.928Z,89.81
2018-01-06T06:36:49.054Z,89.72
2018-01-06T06:37:59.209Z,89.43
2018-01-06T06:39:09.328Z,89.43
2018-01-06T06:40:19.450Z,89.53
2018-01-06T06:41:29.661Z,89.62
2018-01-06T06:42:39.806Z,88.86
2018-01-06T06:43:49.952Z,89.24
2018-01-06T06:44:59.795Z,89.24
2018-01-06T06:46:09.650Z,89.14
2018-01-06T06:47:19.812Z,89.24
2018-01-06T06:48:29.568Z,89.05
2018-01-06T06:49:39.574Z,89.05
2018-01-06T06:50:49.742Z,88.76
2018-01-06T06:51:59.614Z,89.14
2018-01-06T06:53:09.732Z,89
2018-01-06T06:54:19.840Z,89.1
2018-01-06T06:55:29.960Z,89.2
2018-01-06T06:56:40.079Z,89.1
2018-01-06T06:57:50.194Z,88.91
2018-01-06T06:59:00.048Z,89.48
2018-01-06T07:00:10.183Z,89.39
2018-01-06T07:01:20.346Z,89.39
2018-01-06T07:02:30.502Z,89.29
2018-01-06T07:03:40.725Z,89
2018-01-06T07:04:50.991Z,89.48
2018-01-06T07:06:01.153Z,89
2018-01-06T07:07:11.411Z,88.91
2018-01-06T07:08:21.561Z,89.48
2018-01-06T07:09:31.672Z,89.2
2018-01-06T07:10:41.793Z,89.29
2018-01-06T07:11:51.924Z,89
2018-01-06T07:13:02.097Z,88.91
2018-01-06T07:14:12.251Z,89.1
2018-01-06T07:15:22.446Z,89
2018-01-06T07:16:32.642Z,89.39
2018-01-06T07:17:42.828Z,89.39
2018-01-06T07:18:52.963Z,88.91
2018-01-06T07:20:03.079Z,88.91
2018-01-06T07:21:13.219Z,89.48
2018-01-06T07:22:23.367Z,89
2018-01-06T07:23:33.484Z,89.29
2018-01-06T07:24:43.636Z,89.2
2018-01-06T07:25:53.762Z,89.58
2018-01-06T07:27:03.890Z,89.62
2018-01-06T07:28:14.036Z,89.62
2018-01-06T07:29:24.241Z,89.67
2018-01-06T07:30:34.445Z,89.62
2018-01-06T07:31:44.679Z,89.25
2018-01-06T07:32:54.892Z,89.81
2018-01-06T07:34:05.032Z,89.62
2018-01-06T07:35:15.278Z,89.81
2018-01-06T07:36:25.545Z,89.62
2018-01-06T07:37:35.723Z,89.43
2018-01-06T07:38:45.983Z,89.72
2018-01-06T07:39:55.907Z,90.19
2018-01-06T07:41:06.090Z,90
2018-01-06T07:42:16.244Z,90
2018-01-06T07:43:26.387Z,90
2018-01-06T07:44:36.261Z,90.1
2018-01-06T07:45:46.446Z,89.72
2018-01-06T07:46:56.559Z,90
2018-01-06T07:48:06.679Z,90.05
2018-01-06T07:49:16.861Z,90.19
2018-01-06T07:50:27.037Z,90
2018-01-06T07:51:37.192Z,89.72
2018-01-06T07:52:47.305Z,89.76
2018-01-06T07:53:57.437Z,89.95
2018-01-06T07:55:07.555Z,89.67
2018-01-06T07:56:17.740Z,90.05
2018-01-06T07:57:27.872Z,89.76
2018-01-06T07:58:38.060Z,89.76
2018-01-06T07:59:48.172Z,89.76
2018-01-06T08:00:58.318Z,89.95
2018-01-06T08:02:08.513Z,89.95
2018-01-06T08:03:18.708Z,90.14
2018-01-06T08:04:28.828Z,89.48
2018-01-06T08:05:38.972Z,89.76
2018-01-06T08:06:48.961Z,89.58
2018-01-06T08:07:59.141Z,89.62
2018-01-06T08:09:09.299Z,89.43
2018-01-06T08:10:19.487Z,89.33
2018-01-06T08:11:29.646Z,89.53
2018-01-06T08:12:39.830Z,89.14
2018-01-06T08:13:49.970Z,89.24
2018-01-06T08:15:00.110Z,88.95
2018-01-06T08:16:10.256Z,88.86
2018-01-06T08:17:20.421Z,88.39
2018-01-06T08:18:30.632Z,88.62
2018-01-06T08:19:40.760Z,88.95
2018-01-06T08:20:50.687Z,88.91
2018-01-06T08:22:00.803Z,89
2018-01-06T08:23:10.984Z,88.81
2018-01-06T08:24:21.237Z,88.62
2018-01-06T08:25:31.373Z,88.72
2018-01-06T08:26:41.572Z,88.81
2018-01-06T08:27:51.797Z,88.91
2018-01-06T08:29:01.918Z,88.62
2018-01-06T08:30:12.035Z,88.62
2018-01-06T08:31:22.088Z,88.81
2018-01-06T08:32:32.264Z,88.43
2018-01-06T08:33:42.548Z,89.1
2018-01-06T08:34:52.690Z,89
2018-01-06T08:36:02.869Z,89.1
2018-01-06T08:37:13.061Z,89.29
2018-01-06T08:38:23.294Z,89.1
2018-01-06T08:39:33.515Z,89.58
2018-01-06T08:40:43.746Z,89.48
2018-01-06T08:41:53.691Z,89.48
2018-01-06T08:43:03.827Z,89.39
2018-01-06T08:44:13.960Z,89
2018-01-06T08:45:24.107Z,88.91
2018-01-06T08:46:34.265Z,89.39
2018-01-06T08:47:44.376Z,89.39
2018-01-06T08:48:54.585Z,88.91
2018-01-06T08:50:04.720Z,89
2018-01-06T08:51:14.853Z,89.39
2018-01-06T08:52:24.712Z,88.91
2018-01-06T08:53:34.828Z,89.2
2018-01-06T08:54:45.010Z,89
2018-01-06T08:55:55.185Z,89
2018-01-06T08:57:05.467Z,89
2018-01-06T08:58:15.641Z,89.1
2018-01-06T08:59:25.794Z,89.1
2018-01-06T09:00:35.939Z,89.1
2018-01-06T09:01:46.059Z,89.1
2018-01-06T09:02:56.223Z,89.1
2018-01-06T09:04:06.400Z,89.1
2018-01-06T09:05:16.597Z,89
2018-01-06T09:06:26.837Z,89.05
2018-01-06T09:07:37.073Z,88.95
2018-01-06T09:08:47.306Z,88.67
2018-01-06T09:09:57.445Z,88.48
2018-01-06T09:11:07.616Z,88.86
2018-01-06T09:12:17.806Z,88.67
2018-01-06T09:13:27.948Z,89.05
2018-01-06T09:14:37.834Z,88.76
2018-01-06T09:15:48.063Z,88.67
2018-01-06T09:16:59.178Z,88.29
2018-01-06T09:18:09.062Z,88.01
2018-01-06T09:19:19.271Z,87.91
2018-01-06T09:20:29.417Z,88.39
2018-01-06T09:21:39.600Z,88.39
2018-01-06T09:22:49.824Z,88.01
2018-01-06T09:23:59.968Z,88.01
2018-01-06T09:25:09.964Z,88.2
2018-01-06T09:26:20.098Z,87.91
2018-01-06T09:27:30.277Z,87.91
2018-01-06T09:28:40.414Z,88.34
2018-01-06T09:29:50.389Z,88.39
2018-01-06T09:31:00.605Z,88.15
2018-01-06T09:32:10.780Z,87.86
2018-01-06T09:33:20.918Z,87.86
2018-01-06T09:34:31.107Z,87.95
2018-01-06T09:35:41.260Z,87.38
2018-01-06T09:36:51.500Z,87.1
2018-01-06T09:38:01.755Z,87.01
2018-01-06T09:39:11.948Z,87.38
2018-01-06T09:40:22.093Z,87.29
2018-01-06T09:41:31.991Z,87.38
2018-01-06T09:42:41.893Z,87.38
2018-01-06T09:43:52.118Z,86.91
2018-01-06T09:45:02.288Z,86.91
2018-01-06T09:46:12.438Z,86.53
2018-01-06T09:47:22.664Z,86.53
2018-01-06T09:48:32.824Z,86.53
2018-01-06T09:49:42.842Z,86.91
2018-01-06T09:50:53.224Z,86.72
2018-01-06T09:52:03.416Z,86.91
2018-01-06T09:53:13.709Z,86.43
2018-01-06T09:54:23.987Z,86.43
2018-01-06T09:55:34.192Z,86.63
2018-01-06T09:56:44.418Z,86.53
2018-01-06T09:57:54.676Z,86.05
2018-01-06T09:59:04.880Z,86.05
2018-01-06T10:00:15.133Z,86.24
2018-01-06T10:01:25.308Z,86.15
2018-01-06T10:02:35.445Z,86.15
2018-01-06T10:03:45.673Z,86.05
2018-01-06T10:04:55.913Z,85.96
2018-01-06T10:06:06.136Z,86.05
2018-01-06T10:07:16.364Z,86.15
2018-01-06T10:08:26.542Z,86.05
2018-01-06T10:09:36.695Z,85.77
2018-01-06T10:10:46.827Z,86.05
2018-01-06T10:11:57.010Z,86
2018-01-06T10:13:07.162Z,85.53
2018-01-06T10:14:17.306Z,85.53
2018-01-06T10:15:27.463Z,85.34
2018-01-06T10:16:37.665Z,85.24
2018-01-06T10:17:47.895Z,85.19
2018-01-06T10:18:57.786Z,85.28
2018-01-06T10:20:07.925Z,84.91
2018-01-06T10:21:18.078Z,84.62
2018-01-06T10:22:28.296Z,84.38
2018-01-06T10:23:38.552Z,84.38
2018-01-06T10:24:48.779Z,84.09
2018-01-06T10:25:58.930Z,84.19
2018-01-06T10:27:09.110Z,83.81
2018-01-06T10:28:19.407Z,83.62
2018-01-06T10:29:29.657Z,83.56
2018-01-06T10:30:39.820Z,82.99
2018-01-06T10:31:49.990Z,81.95
2018-01-06T10:33:00.183Z,82.27
2018-01-06T10:34:10.415Z,82.27
2018-01-06T10:35:20.587Z,82.37
2018-01-06T10:36:30.843Z,82.18
2018-01-06T10:37:40.998Z,81.51
2018-01-06T10:38:51.271Z,80.65
2018-01-06T10:40:01.472Z,80.36
2018-01-06T10:41:11.671Z,80.27
2018-01-06T10:42:22.005Z,80.65
2018-01-06T10:43:32.235Z,80.71
2018-01-06T10:44:42.455Z,80.71
2018-01-06T10:45:52.735Z,80.61
2018-01-06T10:47:02.989Z,80.71
2018-01-06T10:48:13.176Z,80.42
2018-01-06T10:49:23.352Z,80.04
2018-01-06T10:50:33.556Z,80.19
2018-01-06T10:51:43.761Z,80.47
2018-01-06T10:52:54.074Z,80.47
2018-01-06T10:54:04.337Z,80.19
2018-01-06T10:55:14.582Z,80.19
2018-01-06T10:56:24.473Z,80.19
2018-01-06T10:57:34.663Z,80.47
2018-01-06T10:58:44.877Z,81.14
2018-01-06T10:59:55.042Z,80.57
2018-01-06T11:01:05.202Z,80.47
2018-01-06T11:02:15.375Z,80.57
2018-01-06T11:03:25.567Z,80.19
2018-01-06T11:04:35.747Z,80.29
2018-01-06T11:05:45.934Z,80.29
2018-01-06T11:06:56.222Z,80.76
2018-01-06T11:08:06.375Z,80.66
2018-01-06T11:09:16.536Z,80.19
2018-01-06T11:10:26.675Z,80.66
2018-01-06T11:11:36.855Z,80.47
2018-01-06T11:12:47.020Z,80.38
2018-01-06T11:13:57.215Z,80.66
2018-01-06T11:15:07.391Z,80.57
2018-01-06T11:16:17.573Z,80.47
2018-01-06T11:17:27.778Z,80.57
2018-01-06T11:18:37.953Z,80.38
2018-01-06T11:19:48.268Z,80.47
2018-01-06T11:20:58.150Z,80.57
2018-01-06T11:22:08.399Z,80.19
2018-01-06T11:23:18.548Z,80.47
2018-01-06T11:24:28.752Z,80.57
2018-01-06T11:25:38.695Z,80.29
2018-01-06T11:26:48.631Z,80.57
2018-01-06T11:27:58.799Z,80.19
2018-01-06T11:29:09.076Z,80.38
2018-01-06T11:30:19.234Z,80.66
2018-01-06T11:31:29.390Z,80.47
2018-01-06T11:32:39.301Z,80.57
2018-01-06T11:33:49.475Z,80.19
2018-01-06T11:34:59.659Z,80.23
2018-01-06T11:36:09.862Z,80.04
2018-01-06T11:37:20.029Z,80.13
2018-01-06T11:38:30.297Z,80.33
2018-01-06T11:39:40.503Z,79.85
2018-01-06T11:40:50.755Z,79.85
2018-01-06T11:42:00.970Z,78.8
2018-01-06T11:43:11.178Z,78.61
2018-01-06T11:44:21.347Z,78.8
2018-01-06T11:45:31.642Z,79.47
2018-01-06T11:46:41.851Z,79.28
2018-01-06T11:47:52.015Z,78.99
2018-01-06T11:49:02.209Z,79.09
2018-01-06T11:50:12.393Z,78.9
2018-01-06T11:51:22.261Z,78.99
2018-01-06T11:52:32.524Z,79.19
2018-01-06T11:53:42.750Z,78.9
2018-01-06T11:54:52.976Z,78.9
2018-01-06T11:56:03.205Z,79.57
2018-01-06T11:57:13.125Z,79.38
2018-01-06T11:58:23.276Z,78.9
2018-01-06T11:59:33.474Z,78.99
2018-01-06T12:00:43.662Z,78.9
2018-01-06T12:01:53.817Z,78.61
2018-01-06T12:03:03.999Z,78.9
2018-01-06T12:04:14.198Z,78.9
2018-01-06T12:05:24.389Z,78.9
2018-01-06T12:06:34.574Z,79.19
2018-01-06T12:07:44.762Z,78.9
2018-01-06T12:08:54.975Z,79.47
2018-01-06T12:10:04.973Z,79.28
2018-01-06T12:11:15.164Z,79.09
2018-01-06T12:12:25.389Z,79.28
2018-01-06T12:13:35.614Z,79.28
2018-01-06T12:14:45.827Z,78.99
2018-01-06T12:15:56.043Z,79.09
2018-01-06T12:17:06.304Z,78.99
2018-01-06T12:18:16.465Z,79.09
2018-01-06T12:19:26.689Z,79.09
2018-01-06T12:20:36.894Z,79.19
2018-01-06T12:21:47.130Z,79.09
2018-01-06T12:22:57.358Z,79.38
2018-01-06T12:24:07.607Z,79.28
2018-01-06T12:25:17.828Z,79.19
2018-01-06T12:26:28.033Z,79.28
2018-01-06T12:27:38.233Z,79.09
2018-01-06T12:28:48.444Z,79.13
2018-01-06T12:29:58.668Z,79.19
2018-01-06T12:31:08.880Z,79.19
2018-01-06T12:32:19.117Z,79.09
2018-01-06T12:33:29.309Z,78.61
2018-01-06T12:34:39.531Z,78.9
2018-01-06T12:35:49.865Z,78.52
2018-01-06T12:37:00.035Z,78.9
2018-01-06T12:38:10.251Z,78.52
2018-01-06T12:39:20.461Z,79.09
2018-01-06T12:40:30.679Z,78.71
2018-01-06T12:41:40.911Z,78.8
2018-01-06T12:42:51.112Z,78.9
2018-01-06T12:44:01.119Z,78.9
2018-01-06T12:45:11.492Z,78.99
2018-01-06T12:46:21.662Z,79.28
2018-01-06T12:47:31.862Z,79.19
2018-01-06T12:48:42.099Z,79.09
2018-01-06T12:49:52.341Z,79.75
2018-01-06T12:51:02.628Z,79.38
2018-01-06T12:52:12.966Z,79.38
2018-01-06T12:53:22.907Z,79.28
2018-01-06T12:54:32.839Z,80.13
2018-01-06T12:55:43.126Z,79.28
2018-01-06T12:56:53.312Z,79.75
2018-01-06T12:58:03.529Z,79.85
2018-01-06T12:59:13.690Z,79.85
2018-01-06T13:00:23.966Z,79.94
2018-01-06T13:01:34.164Z,79.66
2018-01-06T13:02:44.388Z,80.04
2018-01-06T13:03:54.565Z,79.94
2018-01-06T13:05:04.761Z,79.75
2018-01-06T13:06:14.966Z,79.75
2018-01-06T13:07:24.883Z,79.75
2018-01-06T13:08:35.033Z,79.85
2018-01-06T13:09:45.256Z,79.66
2018-01-06T13:10:55.164Z,79.85
2018-01-06T13:12:05.425Z,79.85
2018-01-06T13:13:15.650Z,79.75
2018-01-06T13:14:25.913Z,80.23
2018-01-06T13:15:36.224Z,80.23
2018-01-06T13:16:46.452Z,80.13
2018-01-06T13:17:56.858Z,80.13
2018-01-06T13:19:07.132Z,80.66
2018-01-06T13:20:17.290Z,80.29
2018-01-06T13:21:27.538Z,80.86
2018-01-06T13:22:37.720Z,80.47
2018-01-06T13:23:47.852Z,80.47
2018-01-06T13:24:58.016Z,80.47
2018-01-06T13:26:08.309Z,81.14
2018-01-06T13:27:18.548Z,80.95
2018-01-06T13:28:28.760Z,80.95
2018-01-06T13:29:38.970Z,80.86
2018-01-06T13:30:49.291Z,81.14
2018-01-06T13:31:59.464Z,81.24
2018-01-06T13:33:09.642Z,81.33
2018-01-06T13:34:19.836Z,81.43
2018-01-06T13:35:30.027Z,81.14
2018-01-06T13:36:40.202Z,81.24
2018-01-06T13:37:50.540Z,81.71
2018-01-06T13:39:00.739Z,81.62
2018-01-06T13:40:11.044Z,81.62
2018-01-06T13:41:21.287Z,81.43
2018-01-06T13:42:31.466Z,81.43
2018-01-06T13:43:41.607Z,81.62
2018-01-06T13:44:51.838Z,82.09
2018-01-06T13:46:01.992Z,82.19
2018-01-06T13:47:12.252Z,82.28
2018-01-06T13:48:22.540Z,82.48
2018-01-06T13:49:32.724Z,82.19
2018-01-06T13:50:42.646Z,82.38
2018-01-06T13:51:52.855Z,82.28
2018-01-06T13:53:03.020Z,82.57
2018-01-06T13:54:13.214Z,82.48
2018-01-06T13:55:23.145Z,82.67
2018-01-06T13:56:33.312Z,83.23
2018-01-06T13:57:43.524Z,82.95
2018-01-06T13:58:53.761Z,83.04
2018-01-06T14:00:03.970Z,83.14
2018-01-06T14:01:14.211Z,82.95
2018-01-06T14:02:24.407Z,83.14
2018-01-06T14:03:34.615Z,82.95
2018-01-06T14:04:44.761Z,82.95
2018-01-06T14:05:55.002Z,82.76
2018-01-06T14:07:05.239Z,82.86
2018-01-06T14:08:15.528Z,83.33
2018-01-06T14:09:25.690Z,83.04
2018-01-06T14:10:35.895Z,83.23
2018-01-06T14:11:46.050Z,82.76
2018-01-06T14:12:56.240Z,82.95
2018-01-06T14:14:06.617Z,82.86
2018-01-06T14:15:16.780Z,82.95
2018-01-06T14:16:27.020Z,83.04
2018-01-06T14:17:37.167Z,82.95
2018-01-06T14:18:47.371Z,82.76
2018-01-06T14:19:57.552Z,83.33
2018-01-06T14:21:07.751Z,83.19
2018-01-06T14:22:17.931Z,83.39
2018-01-06T14:23:27.846Z,82.81
2018-01-06T14:24:37.759Z,83.39
2018-01-06T14:25:47.902Z,83.29
2018-01-06T14:26:58.076Z,83.19
2018-01-06T14:28:08.293Z,83.1
2018-01-06T14:29:18.519Z,83.19
2018-01-06T14:30:28.674Z,83.42
2018-01-06T14:31:38.840Z,82.81
2018-01-06T14:32:49.065Z,83.1
2018-01-06T14:33:59.276Z,83.29
2018-01-06T14:35:09.496Z,82.86
2018-01-06T14:36:19.654Z,83.39
2018-01-06T14:37:34.590Z,83.1
2018-01-06T14:38:45.145Z,82.71
2018-01-06T14:39:55.321Z,83.19
2018-01-06T14:41:05.539Z,83.48
2018-01-06T14:42:15.692Z,83.67
2018-01-06T14:43:25.914Z,83.76
2018-01-06T14:44:36.053Z,83.1
2018-01-06T14:45:46.286Z,83.1
2018-01-06T14:46:56.620Z,83.29
2018-01-06T14:48:06.901Z,83.48
2018-01-06T14:49:17.194Z,83.67
2018-01-06T14:50:27.332Z,83.19
2018-01-06T14:51:37.497Z,83.39
2018-01-06T14:52:47.666Z,83.48
2018-01-06T14:53:57.821Z,83.29
2018-01-06T14:55:08.000Z,83.1
2018-01-06T14:56:18.240Z,83.58
2018-01-06T14:57:28.464Z,83.29
2018-01-06T14:58:38.799Z,83.39
2018-01-06T14:59:50.005Z,83.29
2018-01-06T15:00:59.914Z,83.58
2018-01-06T15:02:10.060Z,83.48
2018-01-06T15:03:20.298Z,83.48
2018-01-06T15:04:30.360Z,83.95
2018-01-06T15:05:40.538Z,83.86
2018-01-06T15:06:50.728Z,83.76
2018-01-06T15:08:00.894Z,83.29
2018-01-06T15:09:11.152Z,83.58